createdAt,value
2023-05-18T00:01:58.162Z,34.79
2023-05-18T00:04:33.348Z,35.15
2023-05-18T00:07:07.434Z,35.29
2023-05-18T00:09:41.493Z,35.46
2023-05-18T00:12:16.509Z,35.52
2023-05-18T00:14:50.282Z,35.63
2023-05-18T00:17:23.911Z,35.76
2023-05-18T00:19:58.697Z,36.12
2023-05-18T00:22:32.930Z,36.19
2023-05-18T00:25:07.876Z,36.28
2023-05-18T00:27:42.461Z,36.38
2023-05-18T00:30:17.323Z,36.30
2023-05-18T00:32:53.189Z,36.55
2023-05-18T00:35:26.638Z,36.69
2023-05-18T00:38:00.036Z,36.66
2023-05-18T00:40:33.497Z,36.83
2023-05-18T00:43:06.794Z,36.96
2023-05-18T00:45:40.829Z,36.96
2023-05-18T00:48:14.430Z,36.79
2023-05-18T00:50:48.134Z,36.62
2023-05-18T00:53:21.711Z,36.56
2023-05-18T00:55:55.852Z,36.65
2023-05-18T00:58:29.579Z,36.73
2023-05-18T01:01:03.421Z,36.82
2023-05-18T01:03:38.996Z,36.76
2023-05-18T01:06:13.085Z,36.91
2023-05-18T01:08:47.441Z,36.90
2023-05-18T01:11:24.971Z,37.35
2023-05-18T01:16:49.094Z,36.30
2023-05-18T01:19:36.266Z,37.16
2023-05-18T01:22:13.759Z,37.58
2023-05-18T01:24:49.948Z,37.37
2023-05-18T01:27:26.505Z,38.06
2023-05-18T01:30:01.302Z,38.23
2023-05-18T01:32:42.808Z,37.96
2023-05-18T01:35:16.754Z,38.67
2023-05-18T01:37:50.351Z,38.14
2023-05-18T01:40:25.031Z,38.17
2023-05-18T01:43:01.603Z,38.37
2023-05-18T01:45:36.889Z,37.97
2023-05-18T01:48:13.550Z,38.06
2023-05-18T01:50:49.952Z,38.20
2023-05-18T01:53:27.220Z,38.03
2023-05-18T01:56:02.743Z,38.00
2023-05-18T01:58:37.840Z,38.13
2023-05-18T02:01:11.798Z,38.36
2023-05-18T02:03:49.449Z,38.36
2023-05-18T02:06:23.303Z,38.60
2023-05-18T02:08:57.078Z,38.92
2023-05-18T02:11:30.795Z,39.02
2023-05-18T02:14:04.363Z,38.82
2023-05-18T02:16:37.923Z,38.97
2023-05-18T02:19:12.109Z,38.71
2023-05-18T02:21:45.884Z,38.87
2023-05-18T02:24:19.438Z,38.45
2023-05-18T02:26:52.770Z,38.32
2023-05-18T02:29:26.344Z,38.26
2023-05-18T02:31:59.887Z,38.29
2023-05-18T02:34:35.215Z,38.57
2023-05-18T02:37:08.880Z,38.77
2023-05-18T02:39:42.530Z,38.97
2023-05-18T02:42:16.130Z,38.67
2023-05-18T02:44:49.949Z,38.84
2023-05-18T02:47:23.543Z,38.82
2023-05-18T02:49:56.874Z,39.17
2023-05-18T02:52:31.085Z,38.90
2023-05-18T02:55:05.364Z,38.98
2023-05-18T02:57:57.542Z,38.85
2023-05-18T03:00:32.714Z,38.79
2023-05-18T03:03:06.146Z,38.78
2023-05-18T03:05:39.415Z,38.83
2023-05-18T03:08:14.361Z,38.76
2023-05-18T03:10:48.093Z,38.79
2023-05-18T03:13:22.189Z,38.71
2023-05-18T03:15:56.762Z,38.47
2023-05-18T03:18:30.517Z,38.50
2023-05-18T03:21:04.013Z,38.59
2023-05-18T03:23:37.496Z,38.47
2023-05-18T03:26:12.554Z,38.46
2023-05-18T03:28:46.572Z,38.49
2023-05-18T03:31:21.128Z,38.37
2023-05-18T03:33:56.445Z,38.29
2023-05-18T03:36:30.297Z,38.41
2023-05-18T03:39:04.381Z,38.46
2023-05-18T03:41:38.088Z,38.59
2023-05-18T03:44:11.618Z,38.50
2023-05-18T03:46:45.461Z,38.84
2023-05-18T03:49:19.339Z,38.79
2023-05-18T03:51:54.501Z,38.79
2023-05-18T03:54:28.074Z,38.76
2023-05-18T03:57:01.767Z,38.75
2023-05-18T03:59:35.889Z,38.72
2023-05-18T04:02:09.834Z,38.79
2023-05-18T04:04:46.278Z,38.59
2023-05-18T04:10:01.842Z,38.21
2023-05-18T04:12:35.808Z,38.16
2023-05-18T04:15:12.880Z,38.34
2023-05-18T04:17:46.531Z,37.71
2023-05-18T04:20:21.320Z,37.07
2023-05-18T04:23:01.397Z,36.79
2023-05-18T04:25:34.069Z,36.65
2023-05-18T04:28:08.394Z,36.73
2023-05-18T04:30:41.995Z,36.53
2023-05-18T04:33:16.495Z,36.45
2023-05-18T04:35:55.229Z,36.45
2023-05-18T04:38:29.886Z,36.24
2023-05-18T04:41:05.888Z,36.23
2023-05-18T04:43:39.888Z,35.95
2023-05-18T04:46:14.054Z,35.84
2023-05-18T04:48:49.491Z,35.92
2023-05-18T04:51:23.225Z,35.80
2023-05-18T04:53:57.738Z,35.87
2023-05-18T04:56:31.672Z,35.78
2023-05-18T04:59:06.603Z,35.76
2023-05-18T05:01:40.359Z,35.57
2023-05-18T05:04:13.896Z,35.49
2023-05-18T05:06:47.341Z,35.28
2023-05-18T05:09:20.911Z,35.24
2023-05-18T05:11:56.489Z,34.93
2023-05-18T05:14:29.776Z,34.78
2023-05-18T05:17:03.799Z,34.45
2023-05-18T05:19:37.296Z,34.47
2023-05-18T05:22:10.720Z,34.22
2023-05-18T05:24:44.262Z,34.08
2023-05-18T05:27:18.950Z,33.80
2023-05-18T05:29:52.451Z,33.73
2023-05-18T05:32:26.024Z,33.63
2023-05-18T05:35:00.830Z,33.48
2023-05-18T05:37:34.942Z,33.38
2023-05-18T05:40:11.342Z,33.38
2023-05-18T05:42:46.545Z,33.38
2023-05-18T05:45:21.510Z,33.23
2023-05-18T05:47:57.515Z,32.86
2023-05-18T05:50:31.522Z,32.46
2023-05-18T05:53:07.005Z,32.27
2023-05-18T05:55:42.452Z,32.09
2023-05-18T05:58:23.068Z,31.88
2023-05-18T06:00:58.060Z,31.85
2023-05-18T06:03:35.188Z,32.14
2023-05-18T06:06:09.595Z,31.79
2023-05-18T06:08:43.510Z,31.79
2023-05-18T06:11:16.899Z,31.55
2023-05-18T06:13:52.622Z,31.36
2023-05-18T06:16:26.532Z,31.73
2023-05-18T06:19:00.769Z,31.55
2023-05-18T06:21:34.651Z,31.05
2023-05-18T06:24:11.505Z,30.73
2023-05-18T06:26:49.661Z,30.75
2023-05-18T06:29:36.680Z,30.83
2023-05-18T06:32:12.147Z,30.53
2023-05-18T06:34:47.457Z,30.77
2023-05-18T06:37:21.641Z,30.61
2023-05-18T06:39:55.687Z,30.26
2023-05-18T06:42:29.216Z,30.29
2023-05-18T06:45:20.991Z,30.66
2023-05-18T06:47:56.595Z,30.44
2023-05-18T06:50:30.011Z,30.22
2023-05-18T06:53:04.552Z,29.35
2023-05-18T06:55:43.499Z,29.32
2023-05-18T06:58:16.906Z,27.66
2023-05-18T07:00:53.759Z,26.18
2023-05-18T07:03:34.892Z,24.59
2023-05-18T07:06:10.658Z,22.56
2023-05-18T07:08:45.208Z,21.24
2023-05-18T07:11:19.185Z,20.93
2023-05-18T07:13:52.833Z,20.02
2023-05-18T07:16:27.357Z,19.68
2023-05-18T07:19:01.266Z,19.42
2023-05-18T07:21:35.040Z,19.78
2023-05-18T07:24:09.344Z,20.30
2023-05-18T07:26:43.070Z,20.68
2023-05-18T07:29:16.612Z,21.18
2023-05-18T07:31:52.741Z,21.16
2023-05-18T07:34:27.350Z,21.80
2023-05-18T07:37:00.593Z,20.87
2023-05-18T07:39:33.990Z,19.81
2023-05-18T07:42:09.658Z,18.64
2023-05-18T07:44:43.277Z,18.39
2023-05-18T07:47:16.706Z,17.45
2023-05-18T07:49:50.921Z,16.83
2023-05-18T07:52:24.637Z,17.21
2023-05-18T07:54:58.494Z,16.95
2023-05-18T07:57:31.725Z,16.46
2023-05-18T08:00:06.697Z,16.16
2023-05-18T08:02:42.110Z,16.05
2023-05-18T08:05:19.114Z,15.89
2023-05-18T08:07:51.422Z,15.54
2023-05-18T08:10:25.297Z,17.32
2023-05-18T08:12:58.617Z,15.69
2023-05-18T08:18:14.072Z,14.22
2023-05-18T08:20:47.614Z,14.27
2023-05-18T08:23:21.528Z,13.61
2023-05-18T08:25:57.093Z,13.29
2023-05-18T08:28:33.147Z,12.54
2023-05-18T08:31:07.380Z,13.51
2023-05-18T08:33:42.764Z,13.46
2023-05-18T08:36:17.172Z,13.16
2023-05-18T08:38:50.721Z,12.90
2023-05-18T08:41:27.192Z,13.16
2023-05-18T08:44:05.381Z,12.86
2023-05-18T08:46:42.761Z,12.74
2023-05-18T08:49:18.246Z,11.56
2023-05-18T08:51:56.607Z,11.13
2023-05-18T08:54:31.965Z,11.13
2023-05-18T08:57:08.574Z,11.21
2023-05-18T08:59:43.911Z,11.40
2023-05-18T09:02:17.842Z,11.99
2023-05-18T09:04:52.013Z,12.63
2023-05-18T09:07:27.646Z,12.94
2023-05-18T09:10:02.584Z,12.92
2023-05-18T09:12:36.606Z,13.30
2023-05-18T09:15:13.815Z,14.41
2023-05-18T09:17:47.460Z,14.35
2023-05-18T09:20:23.454Z,13.54
2023-05-18T09:22:56.872Z,13.24
2023-05-18T09:25:32.724Z,12.46
2023-05-18T09:28:06.843Z,12.21
2023-05-18T09:30:44.461Z,12.38
2023-05-18T09:33:23.710Z,11.85
2023-05-18T09:35:57.972Z,11.91
2023-05-18T09:38:31.616Z,12.52
2023-05-18T09:41:05.542Z,12.67
2023-05-18T09:43:44.358Z,11.65
2023-05-18T09:46:18.339Z,11.52
2023-05-18T09:48:54.327Z,11.09
2023-05-18T09:51:28.158Z,10.74
2023-05-18T09:54:05.272Z,10.78
2023-05-18T09:56:39.562Z,11.24
2023-05-18T09:59:14.196Z,12.85
2023-05-18T10:02:01.331Z,12.54
2023-05-18T10:04:42.629Z,12.04
2023-05-18T10:07:17.964Z,11.51
2023-05-18T10:09:54.619Z,11.44
2023-05-18T10:12:26.469Z,10.89
2023-05-18T10:17:43.062Z,11.22
2023-05-18T10:20:20.225Z,10.66
2023-05-18T10:22:55.613Z,10.59
2023-05-18T10:25:30.734Z,10.34
2023-05-18T10:28:07.331Z,9.77
2023-05-18T10:30:44.235Z,9.63
2023-05-18T10:33:28.517Z,9.47
2023-05-18T10:35:54.581Z,8.96
2023-05-18T10:38:29.698Z,8.83
2023-05-18T10:41:15.377Z,8.96
2023-05-18T10:43:50.251Z,9.92
2023-05-18T10:46:34.511Z,10.27
2023-05-18T10:49:10.651Z,9.94
2023-05-18T10:51:47.604Z,9.55
2023-05-18T10:57:04.052Z,9.76
2023-05-18T10:59:42.504Z,9.79
2023-05-18T11:02:16.484Z,9.47
2023-05-18T11:04:53.281Z,9.02
2023-05-18T11:07:26.799Z,9.59
2023-05-18T11:10:01.110Z,9.54
2023-05-18T11:12:35.623Z,9.51
2023-05-18T11:15:10.618Z,8.83
2023-05-18T11:17:43.122Z,9.42
2023-05-18T11:20:18.472Z,9.86
2023-05-18T11:22:56.272Z,10.14
2023-05-18T11:25:46.040Z,10.16
2023-05-18T11:28:18.469Z,10.30
2023-05-18T11:30:53.758Z,11.67
2023-05-18T11:33:29.956Z,12.39
2023-05-18T11:36:07.681Z,11.87
2023-05-18T11:41:31.860Z,13.28
2023-05-18T11:44:22.582Z,13.61
2023-05-18T11:47:00.549Z,13.11
2023-05-18T11:49:35.371Z,11.99
2023-05-18T11:52:10.456Z,11.77
2023-05-18T11:54:47.121Z,11.92
2023-05-18T11:57:19.032Z,11.84
2023-05-18T11:59:53.750Z,12.18
2023-05-18T12:02:28.414Z,11.48
2023-05-18T12:05:02.573Z,10.86
2023-05-18T12:07:36.508Z,11.31
2023-05-18T12:10:12.095Z,12.08
2023-05-18T12:12:46.774Z,11.80
2023-05-18T12:15:20.879Z,11.89
2023-05-18T12:17:53.874Z,12.63
2023-05-18T12:20:27.522Z,13.36
2023-05-18T12:23:01.407Z,14.44
2023-05-18T12:25:34.216Z,15.67
2023-05-18T12:28:08.164Z,16.08
2023-05-18T12:30:41.066Z,16.08
2023-05-18T12:33:15.305Z,16.51
2023-05-18T12:35:47.827Z,16.90
2023-05-18T12:38:21.618Z,15.76
2023-05-18T12:40:55.887Z,14.07
2023-05-18T12:43:28.679Z,13.55
2023-05-18T12:46:03.127Z,14.05
2023-05-18T12:48:40.048Z,15.05
2023-05-18T12:51:12.832Z,15.16
2023-05-18T12:53:46.003Z,15.47
2023-05-18T12:56:18.840Z,16.02
2023-05-18T12:59:03.509Z,16.17
2023-05-18T13:01:43.943Z,15.25
2023-05-18T13:04:16.962Z,14.25
2023-05-18T13:06:50.225Z,13.94
2023-05-18T13:09:22.930Z,13.32
2023-05-18T13:12:06.997Z,12.86
2023-05-18T13:14:33.170Z,12.52
2023-05-18T13:17:08.736Z,12.87
2023-05-18T13:19:41.119Z,13.70
2023-05-18T13:22:14.858Z,14.10
2023-05-18T13:24:47.185Z,14.10
2023-05-18T13:27:19.777Z,14.55
2023-05-18T13:29:52.693Z,14.62
2023-05-18T13:32:25.248Z,14.84
2023-05-18T13:34:57.977Z,14.79
2023-05-18T13:37:31.393Z,14.49
2023-05-18T13:40:04.372Z,14.28
2023-05-18T13:42:36.988Z,14.24
2023-05-18T13:45:15.095Z,14.24
2023-05-18T13:47:48.345Z,14.05
2023-05-18T13:50:23.187Z,13.97
2023-05-18T13:52:55.814Z,14.79
2023-05-18T13:55:28.503Z,15.05
2023-05-18T13:58:01.037Z,14.79
2023-05-18T14:00:34.449Z,14.53
2023-05-18T14:03:07.929Z,15.09
2023-05-18T14:05:40.847Z,16.21
2023-05-18T14:08:13.552Z,17.08
2023-05-18T14:10:46.122Z,17.90
2023-05-18T14:13:18.700Z,18.64
2023-05-18T14:15:51.408Z,19.21
2023-05-18T14:18:23.860Z,19.71
2023-05-18T14:20:57.909Z,20.05
2023-05-18T14:23:30.904Z,19.59
2023-05-18T14:26:03.727Z,19.68
2023-05-18T14:28:36.451Z,20.44
2023-05-18T14:31:10.477Z,20.17
2023-05-18T14:33:43.158Z,20.07
2023-05-18T14:36:16.813Z,19.96
2023-05-18T14:38:49.270Z,19.66
2023-05-18T14:41:22.528Z,19.99
2023-05-18T14:43:55.515Z,20.53
2023-05-18T14:46:31.354Z,20.73
2023-05-18T14:49:03.828Z,21.13
2023-05-18T14:54:19.235Z,20.30
2023-05-18T14:56:51.524Z,20.42
2023-05-18T14:59:23.916Z,20.79
2023-05-18T15:01:56.567Z,21.41
2023-05-18T15:04:30.316Z,21.48
2023-05-18T15:07:05.857Z,21.54
2023-05-18T15:09:38.546Z,21.45
2023-05-18T15:12:11.931Z,21.54
2023-05-18T15:14:44.717Z,21.76
2023-05-18T15:17:18.067Z,22.92
2023-05-18T15:19:50.643Z,23.65
2023-05-18T15:22:24.386Z,24.36
2023-05-18T15:24:57.259Z,24.84
2023-05-18T15:27:30.189Z,25.58
2023-05-18T15:32:45.329Z,26.05
2023-05-18T15:35:18.095Z,26.57
2023-05-18T15:38:02.878Z,26.84
2023-05-18T15:40:38.554Z,25.81
2023-05-18T15:43:11.121Z,26.33
2023-05-18T15:45:43.749Z,26.96
2023-05-18T15:48:16.025Z,27.39
2023-05-18T15:50:48.495Z,27.84
2023-05-18T15:53:20.964Z,28.23
2023-05-18T15:55:58.413Z,28.84
2023-05-18T15:58:30.839Z,28.80
2023-05-18T16:01:04.739Z,28.79
2023-05-18T16:03:37.804Z,29.19
2023-05-18T16:06:10.912Z,29.60
2023-05-18T16:08:45.085Z,30.92
2023-05-18T16:11:17.454Z,31.67
2023-05-18T16:13:50.460Z,31.89
2023-05-18T16:16:23.144Z,32.61
2023-05-18T16:18:56.199Z,32.61
2023-05-18T16:21:28.959Z,32.93
2023-05-18T16:24:01.570Z,33.50
2023-05-18T16:26:36.771Z,33.87
2023-05-18T16:29:09.959Z,34.22
2023-05-18T16:31:42.118Z,33.98
2023-05-18T16:34:14.357Z,34.56
2023-05-18T16:36:46.870Z,34.77
2023-05-18T16:39:19.501Z,34.80
2023-05-18T16:41:51.758Z,35.21
2023-05-18T16:44:24.552Z,35.20
2023-05-18T16:46:57.140Z,35.80
2023-05-18T16:49:29.280Z,35.74
2023-05-18T16:52:02.019Z,35.92
2023-05-18T16:54:34.424Z,36.06
2023-05-18T16:57:07.414Z,36.18
2023-05-18T16:59:39.774Z,36.52
2023-05-18T17:02:13.589Z,37.11
2023-05-18T17:04:46.818Z,36.88
2023-05-18T17:07:19.634Z,36.90
2023-05-18T17:09:52.067Z,37.22
2023-05-18T17:12:24.405Z,37.16
2023-05-18T17:14:56.992Z,37.36
2023-05-18T17:17:29.185Z,37.70
2023-05-18T17:20:01.460Z,37.98
2023-05-18T17:22:37.688Z,38.00
2023-05-18T17:25:11.690Z,38.48
2023-05-18T17:27:44.186Z,39.28
2023-05-18T17:30:17.086Z,38.73
2023-05-18T17:32:50.711Z,38.78
2023-05-18T17:35:23.364Z,39.18
2023-05-18T17:37:56.126Z,39.26
2023-05-18T17:40:28.389Z,39.12
2023-05-18T17:43:00.805Z,39.36
2023-05-18T17:45:33.756Z,39.56
2023-05-18T17:48:07.446Z,39.51
2023-05-18T17:50:40.038Z,40.06
2023-05-18T17:53:12.938Z,40.25
2023-05-18T17:55:45.407Z,40.97
2023-05-18T17:58:17.694Z,41.60
2023-05-18T18:00:51.212Z,42.22
2023-05-18T18:03:38.909Z,40.45
2023-05-18T18:06:13.514Z,41.82
2023-05-18T18:09:01.731Z,39.27
2023-05-18T18:11:35.707Z,41.41
2023-05-18T18:14:09.213Z,41.91
2023-05-18T18:16:59.783Z,39.37
2023-05-18T18:19:49.689Z,42.48
2023-05-18T18:22:37.382Z,38.09
2023-05-18T18:25:43.564Z,38.63
2023-05-18T18:31:22.786Z,40.39
2023-05-18T18:33:56.716Z,41.91
2023-05-18T18:36:44.389Z,38.75
2023-05-18T18:39:18.071Z,41.83
2023-05-18T18:41:51.952Z,42.10
2023-05-18T18:44:39.747Z,39.01
2023-05-18T18:47:16.041Z,42.38
2023-05-18T18:49:50.357Z,42.29
2023-05-18T18:52:24.990Z,42.21
2023-05-18T18:55:14.858Z,39.35
2023-05-18T18:58:01.933Z,42.39
2023-05-18T19:00:50.680Z,38.94
2023-05-18T19:03:27.298Z,42.71
2023-05-18T19:06:17.599Z,39.96
2023-05-18T19:08:53.411Z,43.02
2023-05-18T19:11:28.489Z,43.38
2023-05-18T19:14:02.026Z,43.45
2023-05-18T19:16:49.893Z,40.47
2023-05-18T19:19:27.750Z,43.34
2023-05-18T19:22:00.762Z,43.63
2023-05-18T19:24:34.665Z,36.75
2023-05-18T19:27:22.642Z,39.86
2023-05-18T19:29:56.269Z,43.11
2023-05-18T19:32:43.986Z,40.56
2023-05-18T19:35:34.152Z,41.20
2023-05-18T19:38:07.842Z,44.29
2023-05-18T19:40:56.388Z,42.10
2023-05-18T19:43:30.076Z,45.58
2023-05-18T19:46:18.351Z,43.88
2023-05-18T19:48:54.250Z,45.89
2023-05-18T19:51:41.916Z,44.38
2023-05-18T19:54:16.971Z,47.32
2023-05-18T19:57:06.576Z,44.67
2023-05-18T19:59:40.841Z,46.91
2023-05-18T20:02:14.968Z,47.20
2023-05-18T20:04:48.853Z,47.28
2023-05-18T20:07:37.221Z,44.86
2023-05-18T20:10:11.192Z,46.91
2023-05-18T20:12:47.950Z,47.06
2023-05-18T20:15:22.731Z,46.99
2023-05-18T20:18:10.283Z,39.97
2023-05-18T20:20:44.281Z,45.11
2023-05-18T20:23:32.596Z,44.02
2023-05-18T20:26:06.926Z,46.33
2023-05-18T20:28:55.504Z,44.60
2023-05-18T20:31:29.286Z,46.84
2023-05-18T20:34:04.103Z,46.99
2023-05-18T20:36:51.795Z,45.43
2023-05-18T20:39:28.501Z,47.61
2023-05-18T20:42:03.229Z,48.00
2023-05-18T20:44:38.133Z,47.87
2023-05-18T20:47:26.651Z,46.08
2023-05-18T20:50:00.710Z,47.81
2023-05-18T20:52:35.522Z,47.85
2023-05-18T20:55:11.300Z,48.00
2023-05-18T20:58:01.063Z,46.75
2023-05-18T21:00:34.842Z,48.78
2023-05-18T21:03:08.511Z,49.11
2023-05-18T21:05:56.702Z,47.64
2023-05-18T21:08:30.437Z,50.18
2023-05-18T21:11:04.567Z,50.06
2023-05-18T21:13:38.329Z,49.92
2023-05-18T21:16:33.232Z,47.92
2023-05-18T21:19:09.563Z,50.01
2023-05-18T21:21:43.845Z,49.43
2023-05-18T21:24:18.083Z,49.83
2023-05-18T21:27:07.175Z,48.17
2023-05-18T21:29:41.105Z,49.97
2023-05-18T21:32:15.227Z,50.09
2023-05-18T21:34:49.453Z,49.72
2023-05-18T21:37:38.143Z,48.01
2023-05-18T21:40:13.454Z,49.70
2023-05-18T21:42:47.472Z,50.30
2023-05-18T21:45:35.479Z,49.07
2023-05-18T21:48:10.330Z,50.60
2023-05-18T21:50:43.956Z,51.10
2023-05-18T21:53:18.334Z,50.86
2023-05-18T21:56:07.372Z,49.22
2023-05-18T21:58:58.607Z,50.54
2023-05-18T22:01:55.010Z,47.68
2023-05-18T22:04:29.180Z,50.30
2023-05-18T22:07:18.422Z,49.33
2023-05-18T22:09:53.418Z,51.27
2023-05-18T22:12:27.607Z,51.62
2023-05-18T22:15:17.361Z,50.58
2023-05-18T22:17:51.418Z,52.28
2023-05-18T22:20:39.972Z,50.52
2023-05-18T22:23:13.853Z,52.83
2023-05-18T22:26:01.830Z,51.34
2023-05-18T22:28:35.849Z,52.62
2023-05-18T22:31:09.556Z,52.84
2023-05-18T22:33:43.584Z,52.47
2023-05-18T22:36:32.274Z,50.84
2023-05-18T22:39:07.275Z,52.27
2023-05-18T22:41:41.205Z,52.21
2023-05-18T22:44:15.064Z,52.10
2023-05-18T22:47:06.167Z,50.26
2023-05-18T22:49:41.306Z,52.04
2023-05-18T22:52:16.533Z,51.80
2023-05-18T22:54:51.212Z,51.95
2023-05-18T22:57:38.905Z,50.58
2023-05-18T23:00:15.659Z,51.74
2023-05-18T23:02:49.818Z,51.87
2023-05-18T23:05:23.875Z,51.47
2023-05-18T23:08:13.315Z,50.42
2023-05-18T23:10:47.203Z,51.95
2023-05-18T23:13:21.222Z,52.24
2023-05-18T23:16:10.653Z,50.89
2023-05-18T23:18:46.001Z,52.45
2023-05-18T23:21:33.924Z,51.15
2023-05-18T23:24:10.549Z,52.67
2023-05-18T23:26:59.004Z,51.01
2023-05-18T23:29:32.681Z,52.80
2023-05-18T23:32:07.160Z,52.90
2023-05-18T23:34:42.525Z,52.75
2023-05-18T23:37:33.010Z,51.71
2023-05-18T23:40:10.042Z,53.26
2023-05-18T23:42:45.431Z,52.59
2023-05-18T23:45:21.616Z,52.67
2023-05-18T23:48:12.071Z,51.51
2023-05-18T23:51:02.367Z,51.37
2023-05-18T23:53:36.694Z,52.80
2023-05-18T23:56:25.822Z,51.07
2023-05-18T23:59:02.594Z,52.04
